createdAt,value
2022-08-30T00:02:10.829Z,15.85
2022-08-30T00:04:37.742Z,15.91
2022-08-30T00:07:04.677Z,15.92
2022-08-30T00:09:32.253Z,15.96
2022-08-30T00:11:59.180Z,16.01
2022-08-30T00:14:27.647Z,16.02
2022-08-30T00:16:54.657Z,16.03
2022-08-30T00:19:21.469Z,16.01
2022-08-30T00:21:48.383Z,16.04
2022-08-30T00:24:15.216Z,16.01
2022-08-30T00:26:42.018Z,16.06
2022-08-30T00:29:08.856Z,16.07
2022-08-30T00:31:35.717Z,16.12
2022-08-30T00:34:02.737Z,16.13
2022-08-30T00:36:29.599Z,16.13
2022-08-30T00:38:56.422Z,16.10
2022-08-30T00:41:23.278Z,16.06
2022-08-30T00:43:50.096Z,16.12
2022-08-30T00:46:16.950Z,16.09
2022-08-30T00:48:45.395Z,15.93
2022-08-30T00:51:13.004Z,16.03
2022-08-30T00:53:42.538Z,16.02
2022-08-30T00:56:10.168Z,15.98
2022-08-30T00:58:39.517Z,16.01
2022-08-30T01:01:07.021Z,16.01
2022-08-30T01:03:34.237Z,15.96
2022-08-30T01:06:01.180Z,15.95
2022-08-30T01:08:28.025Z,15.95
2022-08-30T01:10:54.925Z,15.94
2022-08-30T01:13:22.765Z,15.96
2022-08-30T01:15:50.775Z,15.97
2022-08-30T01:18:18.910Z,15.91
2022-08-30T01:20:49.596Z,15.92
2022-08-30T01:23:18.502Z,15.87
2022-08-30T01:25:46.719Z,15.81
2022-08-30T01:28:20.161Z,15.81
2022-08-30T01:30:47.380Z,15.77
2022-08-30T01:33:14.280Z,15.69
2022-08-30T01:36:03.517Z,15.65
2022-08-30T01:38:35.580Z,15.50
2022-08-30T01:41:24.858Z,15.60
2022-08-30T01:43:53.122Z,15.55
2022-08-30T01:46:20.726Z,15.46
2022-08-30T01:48:53.803Z,15.59
2022-08-30T01:51:21.937Z,15.61
2022-08-30T01:53:48.800Z,15.65
2022-08-30T01:56:15.778Z,15.66
2022-08-30T01:58:42.677Z,15.70
2022-08-30T02:01:12.749Z,15.63
2022-08-30T02:03:40.804Z,15.71
2022-08-30T02:06:09.179Z,15.76
2022-08-30T02:08:36.220Z,15.73
2022-08-30T02:11:03.656Z,15.69
2022-08-30T02:13:30.698Z,15.76
2022-08-30T02:15:57.656Z,15.79
2022-08-30T02:18:25.180Z,15.80
2022-08-30T02:20:52.082Z,15.82
2022-08-30T02:23:18.996Z,15.79
2022-08-30T02:25:45.941Z,15.83
2022-08-30T02:28:14.955Z,15.82
2022-08-30T02:30:42.904Z,15.79
2022-08-30T02:33:09.833Z,15.78
2022-08-30T02:35:36.719Z,15.69
2022-08-30T02:38:04.241Z,15.56
2022-08-30T02:40:31.217Z,15.51
2022-08-30T02:42:58.598Z,15.44
2022-08-30T02:45:25.620Z,15.43
2022-08-30T02:47:52.639Z,15.45
2022-08-30T02:50:19.520Z,15.48
2022-08-30T02:52:48.354Z,15.53
2022-08-30T02:55:15.398Z,15.60
2022-08-30T02:57:43.640Z,15.66
2022-08-30T03:00:12.841Z,15.67
2022-08-30T03:02:40.627Z,15.68
2022-08-30T03:05:08.756Z,15.63
2022-08-30T03:07:35.601Z,15.67
2022-08-30T03:10:02.480Z,15.67
2022-08-30T03:12:29.319Z,15.68
2022-08-30T03:14:56.605Z,15.67
2022-08-30T03:17:23.618Z,15.69
2022-08-30T03:19:51.328Z,15.66
2022-08-30T03:22:18.538Z,15.58
2022-08-30T03:24:45.963Z,15.52
2022-08-30T03:27:13.053Z,15.48
2022-08-30T03:29:39.911Z,15.39
2022-08-30T03:32:06.844Z,15.33
2022-08-30T03:34:33.660Z,15.28
2022-08-30T03:37:01.497Z,15.25
2022-08-30T03:39:28.358Z,15.23
2022-08-30T03:41:55.218Z,15.15
2022-08-30T03:44:22.378Z,15.13
2022-08-30T03:46:49.217Z,15.08
2022-08-30T03:49:16.360Z,15.01
2022-08-30T03:51:43.499Z,14.95
2022-08-30T03:54:10.324Z,14.89
2022-08-30T03:56:37.357Z,14.84
2022-08-30T03:59:04.237Z,14.89
2022-08-30T04:01:31.131Z,14.96
2022-08-30T04:03:57.996Z,15.00
2022-08-30T04:06:24.818Z,15.00
2022-08-30T04:08:51.840Z,15.06
2022-08-30T04:11:18.917Z,15.08
2022-08-30T04:13:46.418Z,15.05
2022-08-30T04:16:13.304Z,15.14
2022-08-30T04:18:40.182Z,15.15
2022-08-30T04:21:09.491Z,15.19
2022-08-30T04:23:38.699Z,15.20
2022-08-30T04:26:05.739Z,15.20
2022-08-30T04:28:34.061Z,15.16
2022-08-30T04:31:02.438Z,15.17
2022-08-30T04:33:29.245Z,15.22
2022-08-30T04:35:56.141Z,15.26
2022-08-30T04:38:25.492Z,15.30
2022-08-30T04:40:54.438Z,15.43
2022-08-30T04:43:21.218Z,15.51
2022-08-30T04:45:48.354Z,15.61
2022-08-30T04:48:16.716Z,15.71
2022-08-30T04:50:43.638Z,15.81
2022-08-30T04:53:10.540Z,15.86
2022-08-30T04:55:37.700Z,15.98
2022-08-30T04:58:06.003Z,16.07
2022-08-30T05:00:33.031Z,16.05
2022-08-30T05:03:00.344Z,16.04
2022-08-30T05:05:42.567Z,16.01
2022-08-30T05:08:10.659Z,15.93
2022-08-30T05:10:41.917Z,15.92
2022-08-30T05:13:08.822Z,15.89
2022-08-30T05:15:36.079Z,15.94
2022-08-30T05:18:04.361Z,15.93
2022-08-30T05:20:31.239Z,16.07
2022-08-30T05:22:58.081Z,16.12
2022-08-30T05:25:26.656Z,16.19
2022-08-30T05:27:53.703Z,16.26
2022-08-30T05:30:20.759Z,16.28
2022-08-30T05:32:47.575Z,16.26
2022-08-30T05:35:15.602Z,16.35
2022-08-30T05:37:42.516Z,16.40
2022-08-30T05:40:11.091Z,16.50
2022-08-30T05:42:38.408Z,16.58
2022-08-30T05:45:05.940Z,16.74
2022-08-30T05:47:32.780Z,16.90
2022-08-30T05:49:59.798Z,17.02
2022-08-30T05:52:26.597Z,17.13
2022-08-30T05:54:55.048Z,17.18
2022-08-30T05:57:22.260Z,17.20
2022-08-30T05:59:49.139Z,17.22
2022-08-30T06:02:16.077Z,17.53
2022-08-30T06:04:43.300Z,17.53
2022-08-30T06:07:12.937Z,17.49
2022-08-30T06:09:42.179Z,17.57
2022-08-30T06:12:09.157Z,18.75
2022-08-30T06:14:36.676Z,18.93
2022-08-30T06:17:03.540Z,19.76
2022-08-30T06:19:30.419Z,20.48
2022-08-30T06:21:57.383Z,20.38
2022-08-30T06:24:35.687Z,19.56
2022-08-30T06:27:10.057Z,18.84
2022-08-30T06:29:36.947Z,18.44
2022-08-30T06:32:03.858Z,18.24
2022-08-30T06:34:30.789Z,18.06
2022-08-30T06:36:57.614Z,18.06
2022-08-30T06:39:24.463Z,18.00
2022-08-30T06:41:51.279Z,17.94
2022-08-30T06:44:18.137Z,17.89
2022-08-30T06:46:45.525Z,17.91
2022-08-30T06:49:12.484Z,18.00
2022-08-30T06:51:39.790Z,18.06
2022-08-30T06:54:07.143Z,18.21
2022-08-30T06:56:40.280Z,18.35
2022-08-30T06:59:09.540Z,18.50
2022-08-30T07:01:36.519Z,18.48
2022-08-30T07:04:03.664Z,18.40
2022-08-30T07:06:30.979Z,18.30
2022-08-30T07:08:57.843Z,18.31
2022-08-30T07:11:29.098Z,18.30
2022-08-30T07:13:56.345Z,18.32
2022-08-30T07:16:23.381Z,18.29
2022-08-30T07:18:56.398Z,18.33
2022-08-30T07:21:25.970Z,18.34
2022-08-30T07:23:53.752Z,18.34
2022-08-30T07:26:26.101Z,18.34
2022-08-30T07:28:55.886Z,18.21
2022-08-30T07:31:23.688Z,18.16
2022-08-30T07:33:50.680Z,18.00
2022-08-30T07:36:18.039Z,17.80
2022-08-30T07:38:48.307Z,17.57
2022-08-30T07:41:27.068Z,17.47
2022-08-30T07:43:54.120Z,17.59
2022-08-30T07:46:21.692Z,17.67
2022-08-30T07:48:48.743Z,17.77
2022-08-30T07:51:17.982Z,17.80
2022-08-30T07:53:44.942Z,17.77
2022-08-30T07:56:11.892Z,17.68
2022-08-30T07:58:39.782Z,17.65
2022-08-30T08:01:07.682Z,17.71
2022-08-30T08:03:35.265Z,17.91
2022-08-30T08:06:04.968Z,18.28
2022-08-30T08:08:31.842Z,18.41
2022-08-30T08:10:58.900Z,18.52
2022-08-30T08:13:28.578Z,18.54
2022-08-30T08:15:59.605Z,18.49
2022-08-30T08:18:26.480Z,18.46
2022-08-30T08:20:53.906Z,18.21
2022-08-30T08:23:23.145Z,18.09
2022-08-30T08:25:49.986Z,17.99
2022-08-30T08:28:17.000Z,17.86
2022-08-30T08:30:48.064Z,17.86
2022-08-30T08:33:15.236Z,17.91
2022-08-30T08:35:43.488Z,17.84
2022-08-30T08:38:10.349Z,17.71
2022-08-30T08:41:11.048Z,17.76
2022-08-30T08:43:37.943Z,17.91
2022-08-30T08:46:10.935Z,17.91
2022-08-30T08:48:59.527Z,17.79
2022-08-30T08:51:47.646Z,17.72
2022-08-30T08:54:39.243Z,17.65
2022-08-30T08:57:06.141Z,17.64
2022-08-30T08:59:32.979Z,17.52
2022-08-30T09:02:01.880Z,17.46
2022-08-30T09:04:36.089Z,17.38
2022-08-30T09:07:06.838Z,17.57
2022-08-30T09:09:36.721Z,17.54
2022-08-30T09:12:04.839Z,17.44
2022-08-30T09:14:34.853Z,17.42
2022-08-30T09:17:11.440Z,17.32
2022-08-30T09:19:53.730Z,17.10
2022-08-30T09:22:31.398Z,16.91
2022-08-30T09:25:23.975Z,16.76
2022-08-30T09:27:52.327Z,16.62
2022-08-30T09:30:27.381Z,16.70
2022-08-30T09:33:20.535Z,16.79
2022-08-30T09:35:49.203Z,16.85
2022-08-30T09:38:23.180Z,16.92
2022-08-30T09:40:51.958Z,17.09
2022-08-30T09:43:18.683Z,17.25
2022-08-30T09:46:02.732Z,17.45
2022-08-30T09:48:48.589Z,17.61
2022-08-30T09:51:39.317Z,17.82
2022-08-30T09:54:25.559Z,17.94
2022-08-30T09:57:33.782Z,18.19
2022-08-30T10:00:19.131Z,18.43
2022-08-30T10:03:04.791Z,18.17
2022-08-30T10:05:50.044Z,18.15
2022-08-30T10:08:37.339Z,18.17
2022-08-30T10:11:33.260Z,18.29
2022-08-30T10:14:00.121Z,18.57
2022-08-30T10:16:41.863Z,18.89
2022-08-30T10:19:29.739Z,19.04
2022-08-30T10:22:03.317Z,18.95
2022-08-30T10:24:40.379Z,19.11
2022-08-30T10:27:32.845Z,19.42
2022-08-30T10:30:03.781Z,19.76
2022-08-30T10:32:40.619Z,20.28
2022-08-30T10:35:08.558Z,20.86
2022-08-30T10:37:48.902Z,21.55
2022-08-30T10:40:49.782Z,22.12
2022-08-30T10:43:39.186Z,22.45
2022-08-30T10:46:09.799Z,22.45
2022-08-30T10:48:40.482Z,22.31
2022-08-30T10:51:15.641Z,22.02
2022-08-30T10:54:19.910Z,22.05
2022-08-30T10:56:49.318Z,21.81
2022-08-30T10:59:17.398Z,21.93
2022-08-30T11:01:56.820Z,21.94
2022-08-30T11:05:00.933Z,22.23
2022-08-30T11:08:04.878Z,22.79
2022-08-30T11:10:38.858Z,23.51
2022-08-30T11:13:08.161Z,23.41
2022-08-30T11:15:36.556Z,23.57
2022-08-30T11:18:09.565Z,23.30
2022-08-30T11:20:44.845Z,22.16
2022-08-30T11:23:33.365Z,21.70
2022-08-30T11:26:20.379Z,21.46
2022-08-30T11:28:48.342Z,21.38
2022-08-30T11:31:18.272Z,21.23
2022-08-30T11:33:48.951Z,21.04
2022-08-30T11:36:46.119Z,20.98
2022-08-30T11:39:42.977Z,20.65
2022-08-30T11:42:30.145Z,20.92
2022-08-30T11:45:28.617Z,20.94
2022-08-30T11:47:59.604Z,21.03
2022-08-30T11:50:40.178Z,20.82
2022-08-30T11:53:25.706Z,20.78
2022-08-30T11:56:10.223Z,21.11
2022-08-30T11:59:05.309Z,21.30
2022-08-30T12:01:52.001Z,21.96
2022-08-30T12:04:19.872Z,22.34
2022-08-30T12:06:48.119Z,21.93
2022-08-30T12:09:17.663Z,21.86
2022-08-30T12:12:02.802Z,21.83
2022-08-30T12:14:38.000Z,21.91
2022-08-30T12:17:35.465Z,21.77
2022-08-30T12:20:02.369Z,21.27
2022-08-30T12:22:30.685Z,20.90
2022-08-30T12:24:57.938Z,20.81
2022-08-30T12:27:32.986Z,20.70
2022-08-30T12:30:01.816Z,20.74
2022-08-30T12:32:29.335Z,20.60
2022-08-30T12:34:59.817Z,21.02
2022-08-30T12:37:36.774Z,21.30
2022-08-30T12:40:23.168Z,21.18
2022-08-30T12:42:58.251Z,21.03
2022-08-30T12:45:27.456Z,21.04
2022-08-30T12:48:11.485Z,21.02
2022-08-30T12:50:52.107Z,21.13
2022-08-30T12:53:33.779Z,21.35
2022-08-30T12:56:06.435Z,21.63
2022-08-30T12:58:52.080Z,21.94
2022-08-30T13:01:28.320Z,22.14
2022-08-30T13:03:58.459Z,21.92
2022-08-30T13:06:52.180Z,22.17
2022-08-30T13:09:39.097Z,21.18
2022-08-30T13:12:09.903Z,20.31
2022-08-30T13:14:39.036Z,19.78
2022-08-30T13:17:20.424Z,19.36
2022-08-30T13:20:12.243Z,19.16
2022-08-30T13:22:40.636Z,19.13
2022-08-30T13:25:09.015Z,19.24
2022-08-30T13:27:37.160Z,19.46
2022-08-30T13:30:14.798Z,19.87
2022-08-30T13:32:41.819Z,20.12
2022-08-30T13:35:09.139Z,20.28
2022-08-30T13:37:51.914Z,20.26
2022-08-30T13:40:19.709Z,20.10
2022-08-30T13:42:46.893Z,20.07
2022-08-30T13:48:01.522Z,20.65
2022-08-30T13:50:28.355Z,20.88
2022-08-30T13:52:57.303Z,21.18
2022-08-30T13:55:24.184Z,21.35
2022-08-30T13:57:55.104Z,21.21
2022-08-30T14:00:23.501Z,21.00
2022-08-30T14:02:54.607Z,20.47
2022-08-30T14:06:04.645Z,20.03
2022-08-30T14:08:45.826Z,19.49
2022-08-30T14:11:18.353Z,19.27
2022-08-30T14:16:32.895Z,20.35
2022-08-30T14:19:00.326Z,22.01
2022-08-30T14:21:27.360Z,21.38
2022-08-30T14:23:56.015Z,21.06
2022-08-30T14:26:33.731Z,22.06
2022-08-30T14:29:05.452Z,23.50
2022-08-30T14:31:36.632Z,24.48
2022-08-30T14:34:04.358Z,24.63
2022-08-30T14:36:32.925Z,23.36
2022-08-30T14:39:00.807Z,22.49
2022-08-30T14:41:27.645Z,21.74
2022-08-30T14:43:54.482Z,21.09
2022-08-30T14:46:22.237Z,20.30
2022-08-30T14:48:50.282Z,19.72
2022-08-30T14:51:18.979Z,19.37
2022-08-30T14:53:46.043Z,18.99
2022-08-30T14:56:15.558Z,18.91
2022-08-30T14:58:42.588Z,18.88
2022-08-30T15:01:10.285Z,18.85
2022-08-30T15:03:39.819Z,18.78
2022-08-30T15:06:07.135Z,18.62
2022-08-30T15:08:34.706Z,18.67
2022-08-30T15:11:01.719Z,18.73
2022-08-30T15:13:29.020Z,18.48
2022-08-30T15:15:56.900Z,18.25
2022-08-30T15:18:24.671Z,18.02
2022-08-30T15:20:51.476Z,17.84
2022-08-30T15:23:18.359Z,17.68
2022-08-30T15:25:49.846Z,17.70
2022-08-30T15:28:17.067Z,17.71
2022-08-30T15:30:44.517Z,17.86
2022-08-30T15:33:11.340Z,17.89
2022-08-30T15:35:38.169Z,17.95
2022-08-30T15:38:04.981Z,17.93
2022-08-30T15:40:34.929Z,18.00
2022-08-30T15:43:04.966Z,18.00
2022-08-30T15:45:31.886Z,17.99
2022-08-30T15:48:00.161Z,17.94
2022-08-30T15:50:27.384Z,17.85
2022-08-30T15:52:55.065Z,17.72
2022-08-30T15:55:22.290Z,17.66
2022-08-30T15:57:49.138Z,17.56
2022-08-30T16:00:16.446Z,17.39
2022-08-30T16:02:44.049Z,17.37
2022-08-30T16:05:11.100Z,17.28
2022-08-30T16:07:40.861Z,17.25
2022-08-30T16:10:08.942Z,17.19
2022-08-30T16:12:35.809Z,17.14
2022-08-30T16:15:02.610Z,17.15
2022-08-30T16:17:29.502Z,17.14
2022-08-30T16:19:58.941Z,17.11
2022-08-30T16:22:26.639Z,17.18
2022-08-30T16:24:53.655Z,17.13
2022-08-30T16:27:21.096Z,17.16
2022-08-30T16:29:48.599Z,17.10
2022-08-30T16:32:17.663Z,17.03
2022-08-30T16:34:45.222Z,17.05
2022-08-30T16:37:12.108Z,16.96
2022-08-30T16:39:38.884Z,16.96
2022-08-30T16:42:06.862Z,16.83
2022-08-30T16:44:34.078Z,16.78
2022-08-30T16:47:01.763Z,16.71
2022-08-30T16:49:28.720Z,16.56
2022-08-30T16:51:56.106Z,16.59
2022-08-30T16:54:23.433Z,16.55
2022-08-30T16:56:50.458Z,16.61
2022-08-30T16:59:17.778Z,16.66
2022-08-30T17:01:45.896Z,16.66
2022-08-30T17:04:19.305Z,16.67
2022-08-30T17:06:48.043Z,16.67
2022-08-30T17:09:16.845Z,16.67
2022-08-30T17:11:44.878Z,16.62
2022-08-30T17:14:11.959Z,16.56
2022-08-30T17:16:38.952Z,16.46
2022-08-30T17:19:08.415Z,16.33
2022-08-30T17:21:35.381Z,16.18
2022-08-30T17:24:03.360Z,16.08
2022-08-30T17:26:34.381Z,15.98
2022-08-30T17:29:01.298Z,15.74
2022-08-30T17:31:31.093Z,15.58
2022-08-30T17:34:03.337Z,15.48
2022-08-30T17:36:35.541Z,15.41
2022-08-30T17:39:10.638Z,15.35
2022-08-30T17:41:39.301Z,15.23
2022-08-30T17:44:06.301Z,15.04
2022-08-30T17:46:34.341Z,15.07
2022-08-30T17:49:01.705Z,14.94
2022-08-30T17:51:29.430Z,14.85
2022-08-30T17:53:57.163Z,14.84
2022-08-30T17:56:24.740Z,14.82
2022-08-30T17:59:01.244Z,14.79
2022-08-30T18:01:28.658Z,14.70
2022-08-30T18:04:01.572Z,14.61
2022-08-30T18:06:29.252Z,14.49
2022-08-30T18:08:56.203Z,14.39
2022-08-30T18:11:23.237Z,14.36
2022-08-30T18:13:50.345Z,14.28
2022-08-30T18:16:18.689Z,14.24
2022-08-30T18:18:52.641Z,14.16
2022-08-30T18:21:23.882Z,14.14
2022-08-30T18:23:52.939Z,14.05
2022-08-30T18:26:23.985Z,14.10
2022-08-30T18:29:06.659Z,13.98
2022-08-30T18:31:33.611Z,13.97
2022-08-30T18:34:00.510Z,13.93
2022-08-30T18:36:28.320Z,13.92
2022-08-30T18:38:55.207Z,13.95
2022-08-30T18:41:22.299Z,13.85
2022-08-30T18:43:55.027Z,13.85
2022-08-30T18:46:28.847Z,13.72
2022-08-30T18:48:56.041Z,13.73
2022-08-30T18:51:24.779Z,13.78
2022-08-30T18:53:51.659Z,13.78
2022-08-30T18:56:18.579Z,13.97
2022-08-30T18:58:47.523Z,14.09
2022-08-30T19:01:18.375Z,14.15
2022-08-30T19:03:49.139Z,14.24
2022-08-30T19:06:16.669Z,14.29
2022-08-30T19:08:45.854Z,14.28
2022-08-30T19:11:13.002Z,14.37
2022-08-30T19:13:39.946Z,14.44
2022-08-30T19:16:06.980Z,14.50
2022-08-30T19:18:34.031Z,14.53
2022-08-30T19:21:03.577Z,14.56
2022-08-30T19:23:34.327Z,14.68
2022-08-30T19:26:01.419Z,14.68
2022-08-30T19:28:28.542Z,14.66
2022-08-30T19:30:55.421Z,14.64
2022-08-30T19:33:22.283Z,14.58
2022-08-30T19:35:51.316Z,14.57
2022-08-30T19:38:18.653Z,14.57
2022-08-30T19:40:51.043Z,14.52
2022-08-30T19:43:20.842Z,14.49
2022-08-30T19:45:55.721Z,14.42
2022-08-30T19:48:23.813Z,14.30
2022-08-30T19:50:56.441Z,14.26
2022-08-30T19:53:24.561Z,14.26
2022-08-30T19:55:51.622Z,14.23
2022-08-30T19:58:18.501Z,14.24
2022-08-30T20:00:54.518Z,14.25
2022-08-30T20:03:28.164Z,14.21
2022-08-30T20:05:55.162Z,14.19
2022-08-30T20:08:22.120Z,14.16
2022-08-30T20:10:49.121Z,14.04
2022-08-30T20:13:19.450Z,13.94
2022-08-30T20:15:56.348Z,13.84
2022-08-30T20:18:26.078Z,13.76
2022-08-30T20:20:53.357Z,13.74
2022-08-30T20:23:21.770Z,13.71
2022-08-30T20:25:54.668Z,13.68
2022-08-30T20:28:21.911Z,13.57
2022-08-30T20:30:49.288Z,13.53
2022-08-30T20:33:16.531Z,13.47
2022-08-30T20:35:48.729Z,13.53
2022-08-30T20:38:21.450Z,13.56
2022-08-30T20:40:50.432Z,13.63
2022-08-30T20:43:18.943Z,13.71
2022-08-30T20:45:46.060Z,13.75
2022-08-30T20:48:13.200Z,13.92
2022-08-30T20:50:40.481Z,13.97
2022-08-30T20:53:07.362Z,14.05
2022-08-30T20:55:34.579Z,14.14
2022-08-30T20:58:01.429Z,14.19
2022-08-30T21:00:28.324Z,14.25
2022-08-30T21:02:55.322Z,14.26
2022-08-30T21:05:22.242Z,14.28
2022-08-30T21:07:49.239Z,14.29
2022-08-30T21:10:21.302Z,14.30
2022-08-30T21:12:50.225Z,14.29
2022-08-30T21:15:36.197Z,14.29
2022-08-30T21:18:03.581Z,14.33
2022-08-30T21:20:30.421Z,14.30
2022-08-30T21:22:57.285Z,14.34
2022-08-30T21:25:24.202Z,14.31
2022-08-30T21:27:53.078Z,14.28
2022-08-30T21:30:20.040Z,14.20
2022-08-30T21:32:46.912Z,14.29
2022-08-30T21:35:32.139Z,14.29
2022-08-30T21:37:58.961Z,14.32
2022-08-30T21:40:25.857Z,14.34
2022-08-30T21:42:52.781Z,14.30
2022-08-30T21:45:19.782Z,14.27
2022-08-30T21:47:46.684Z,14.26
2022-08-30T21:50:13.561Z,14.18
2022-08-30T21:52:40.440Z,14.21
2022-08-30T21:55:07.638Z,14.23
2022-08-30T21:57:34.478Z,14.23
2022-08-30T22:00:01.383Z,14.22
2022-08-30T22:02:29.226Z,14.26
2022-08-30T22:04:56.191Z,14.32
2022-08-30T22:07:23.060Z,14.32
2022-08-30T22:09:49.982Z,14.33
2022-08-30T22:12:16.999Z,14.38
2022-08-30T22:14:44.018Z,14.39
2022-08-30T22:17:11.531Z,14.41
2022-08-30T22:19:38.442Z,14.40
2022-08-30T22:22:06.059Z,14.41
2022-08-30T22:24:33.118Z,14.38
2022-08-30T22:27:01.733Z,14.32
2022-08-30T22:29:29.379Z,14.27
2022-08-30T22:31:56.351Z,14.16
2022-08-30T22:34:23.236Z,14.08
2022-08-30T22:36:50.153Z,14.05
2022-08-30T22:39:17.017Z,13.98
2022-08-30T22:41:44.300Z,13.87
2022-08-30T22:44:11.618Z,13.92
2022-08-30T22:46:38.765Z,13.95
2022-08-30T22:49:07.021Z,14.09
2022-08-30T22:51:34.018Z,14.19
2022-08-30T22:54:01.330Z,14.27
2022-08-30T22:56:28.358Z,14.32
2022-08-30T22:58:55.544Z,14.36
2022-08-30T23:01:36.884Z,14.33
2022-08-30T23:04:06.769Z,14.33
2022-08-30T23:06:33.616Z,14.41
2022-08-30T23:09:00.517Z,14.40
2022-08-30T23:11:27.401Z,14.38
2022-08-30T23:13:54.445Z,14.36
2022-08-30T23:16:21.423Z,14.37
2022-08-30T23:18:48.522Z,14.35
2022-08-30T23:21:23.001Z,14.35
2022-08-30T23:24:09.179Z,14.35
2022-08-30T23:26:54.999Z,14.30
2022-08-30T23:29:40.238Z,14.36
2022-08-30T23:32:25.558Z,14.42
2022-08-30T23:35:10.763Z,14.44
2022-08-30T23:37:55.901Z,14.43
2022-08-30T23:40:41.212Z,14.39
2022-08-30T23:43:27.880Z,14.45
2022-08-30T23:46:17.031Z,14.43
2022-08-30T23:49:05.660Z,14.35
2022-08-30T23:51:50.923Z,14.19
2022-08-30T23:54:35.979Z,14.03
2022-08-30T23:57:21.233Z,13.91
